sensor_id;sensor_type;location;lat;lon;timestamp;P1;durP1;ratioP1;P2;durP2;ratioP2
19024;SDS011;9645;51.448;6.260;2024-01-15T00:01:52;48.47;;;15.35;;
19024;SDS011;9645;51.448;6.260;2024-01-15T00:04:19;44.33;;;13.90;;
19024;SDS011;9645;51.448;6.260;2024-01-15T00:06:48;42.85;;;13.43;;
19024;SDS011;9645;51.448;6.260;2024-01-15T00:09:15;44.40;;;14.13;;
19024;SDS011;9645;51.448;6.260;2024-01-15T00:11:42;53.63;;;14.60;;
19024;SDS011;9645;51.448;6.260;2024-01-15T00:14:09;39.42;;;12.98;;
19024;SDS011;9645;51.448;6.260;2024-01-15T00:16:37;58.92;;;14.13;;
19024;SDS011;9645;51.448;6.260;2024-01-15T00:19:06;42.88;;;13.70;;
19024;SDS011;9645;51.448;6.260;2024-01-15T00:21:33;47.80;;;14.55;;
19024;SDS011;9645;51.448;6.260;2024-01-15T00:24:02;47.33;;;13.70;;
19024;SDS011;9645;51.448;6.260;2024-01-15T00:26:29;54.83;;;16.90;;
19024;SDS011;9645;51.448;6.260;2024-01-15T00:28:56;45.47;;;16.30;;
19024;SDS011;9645;51.448;6.260;2024-01-15T00:31:24;42.60;;;14.60;;
19024;SDS011;9645;51.448;6.260;2024-01-15T00:33:51;44.85;;;15.73;;
19024;SDS011;9645;51.448;6.260;2024-01-15T00:36:18;47.63;;;15.75;;
19024;SDS011;9645;51.448;6.260;2024-01-15T00:38:45;42.83;;;15.63;;
19024;SDS011;9645;51.448;6.260;2024-01-15T00:41:15;62.60;;;15.65;;
19024;SDS011;9645;51.448;6.260;2024-01-15T00:43:42;47.35;;;16.40;;
19024;SDS011;9645;51.448;6.260;2024-01-15T00:46:09;39.83;;;14.05;;
19024;SDS011;9645;51.448;6.260;2024-01-15T00:48:36;54.90;;;17.75;;
19024;SDS011;9645;51.448;6.260;2024-01-15T00:51:03;41.28;;;14.38;;
19024;SDS011;9645;51.448;6.260;2024-01-15T00:53:31;50.42;;;14.90;;
19024;SDS011;9645;51.448;6.260;2024-01-15T00:55:58;47.05;;;15.23;;
19024;SDS011;9645;51.448;6.260;2024-01-15T00:58:26;55.00;;;15.85;;
19024;SDS011;9645;51.448;6.260;2024-01-15T01:00:54;55.47;;;15.05;;
19024;SDS011;9645;51.448;6.260;2024-01-15T01:03:21;52.83;;;15.07;;
19024;SDS011;9645;51.448;6.260;2024-01-15T01:05:48;45.83;;;14.27;;
19024;SDS011;9645;51.448;6.260;2024-01-15T01:08:16;46.40;;;13.80;;
19024;SDS011;9645;51.448;6.260;2024-01-15T01:10:43;46.08;;;14.18;;
19024;SDS011;9645;51.448;6.260;2024-01-15T01:13:10;44.88;;;14.90;;
19024;SDS011;9645;51.448;6.260;2024-01-15T01:15:38;46.10;;;14.38;;
19024;SDS011;9645;51.448;6.260;2024-01-15T01:18:05;40.90;;;13.60;;
19024;SDS011;9645;51.448;6.260;2024-01-15T01:20:32;41.53;;;13.27;;
19024;SDS011;9645;51.448;6.260;2024-01-15T01:22:59;37.58;;;13.70;;
19024;SDS011;9645;51.448;6.260;2024-01-15T01:25:26;39.78;;;13.82;;
19024;SDS011;9645;51.448;6.260;2024-01-15T01:27:54;43.42;;;13.50;;
19024;SDS011;9645;51.448;6.260;2024-01-15T01:30:20;49.42;;;13.77;;
19024;SDS011;9645;51.448;6.260;2024-01-15T01:32:49;50.47;;;13.38;;
19024;SDS011;9645;51.448;6.260;2024-01-15T01:35:16;47.00;;;13.77;;
19024;SDS011;9645;51.448;6.260;2024-01-15T01:37:43;46.92;;;12.57;;
19024;SDS011;9645;51.448;6.260;2024-01-15T01:40:10;51.83;;;13.20;;
19024;SDS011;9645;51.448;6.260;2024-01-15T01:45:16;37.00;;;11.80;;
19024;SDS011;9645;51.448;6.260;2024-01-15T01:47:43;41.47;;;12.15;;
19024;SDS011;9645;51.448;6.260;2024-01-15T01:50:12;37.42;;;12.60;;
19024;SDS011;9645;51.448;6.260;2024-01-15T01:52:39;44.80;;;11.88;;
19024;SDS011;9645;51.448;6.260;2024-01-15T01:55:07;38.47;;;11.40;;
19024;SDS011;9645;51.448;6.260;2024-01-15T01:57:36;28.02;;;10.85;;
19024;SDS011;9645;51.448;6.260;2024-01-15T02:00:04;26.48;;;9.80;;
19024;SDS011;9645;51.448;6.260;2024-01-15T02:02:32;23.98;;;9.35;;
19024;SDS011;9645;51.448;6.260;2024-01-15T02:04:59;30.13;;;9.60;;
19024;SDS011;9645;51.448;6.260;2024-01-15T02:07:28;27.05;;;8.98;;
19024;SDS011;9645;51.448;6.260;2024-01-15T02:09:55;39.45;;;9.55;;
19024;SDS011;9645;51.448;6.260;2024-01-15T02:12:22;32.58;;;9.07;;
19024;SDS011;9645;51.448;6.260;2024-01-15T02:14:49;25.10;;;9.00;;
19024;SDS011;9645;51.448;6.260;2024-01-15T02:17:15;32.30;;;8.68;;
19024;SDS011;9645;51.448;6.260;2024-01-15T02:19:42;24.75;;;8.20;;
19024;SDS011;9645;51.448;6.260;2024-01-15T02:22:09;26.13;;;7.78;;
19024;SDS011;9645;51.448;6.260;2024-01-15T02:24:38;26.58;;;7.90;;
19024;SDS011;9645;51.448;6.260;2024-01-15T02:27:05;17.70;;;6.95;;
19024;SDS011;9645;51.448;6.260;2024-01-15T02:29:32;18.95;;;6.80;;
19024;SDS011;9645;51.448;6.260;2024-01-15T02:31:59;25.88;;;8.10;;
19024;SDS011;9645;51.448;6.260;2024-01-15T02:34:31;20.83;;;6.53;;
19024;SDS011;9645;51.448;6.260;2024-01-15T02:36:58;26.90;;;7.68;;
19024;SDS011;9645;51.448;6.260;2024-01-15T02:39:25;22.70;;;7.57;;
19024;SDS011;9645;51.448;6.260;2024-01-15T02:41:53;34.67;;;8.05;;
19024;SDS011;9645;51.448;6.260;2024-01-15T02:44:21;18.13;;;7.07;;
19024;SDS011;9645;51.448;6.260;2024-01-15T02:46:48;20.20;;;7.50;;
19024;SDS011;9645;51.448;6.260;2024-01-15T02:49:15;18.55;;;7.85;;
19024;SDS011;9645;51.448;6.260;2024-01-15T02:51:42;19.65;;;7.47;;
19024;SDS011;9645;51.448;6.260;2024-01-15T02:54:09;17.77;;;7.97;;
19024;SDS011;9645;51.448;6.260;2024-01-15T02:56:36;22.75;;;7.53;;
19024;SDS011;9645;51.448;6.260;2024-01-15T02:59:04;22.23;;;7.55;;
19024;SDS011;9645;51.448;6.260;2024-01-15T03:01:31;21.75;;;8.00;;
19024;SDS011;9645;51.448;6.260;2024-01-15T03:03:58;20.55;;;7.72;;
19024;SDS011;9645;51.448;6.260;2024-01-15T03:06:25;17.02;;;6.75;;
19024;SDS011;9645;51.448;6.260;2024-01-15T03:08:52;26.65;;;8.48;;
19024;SDS011;9645;51.448;6.260;2024-01-15T03:11:19;26.15;;;8.55;;
19024;SDS011;9645;51.448;6.260;2024-01-15T03:13:46;23.80;;;7.95;;
19024;SDS011;9645;51.448;6.260;2024-01-15T03:16:14;23.70;;;8.07;;
19024;SDS011;9645;51.448;6.260;2024-01-15T03:18:41;24.65;;;7.45;;
19024;SDS011;9645;51.448;6.260;2024-01-15T03:21:08;21.75;;;7.93;;
19024;SDS011;9645;51.448;6.260;2024-01-15T03:23:35;19.73;;;7.90;;
19024;SDS011;9645;51.448;6.260;2024-01-15T03:26:01;27.20;;;7.32;;
19024;SDS011;9645;51.448;6.260;2024-01-15T03:28:29;24.65;;;7.55;;
19024;SDS011;9645;51.448;6.260;2024-01-15T03:30:56;25.45;;;8.50;;
19024;SDS011;9645;51.448;6.260;2024-01-15T03:33:24;27.10;;;6.93;;
19024;SDS011;9645;51.448;6.260;2024-01-15T03:35:51;21.27;;;7.05;;
19024;SDS011;9645;51.448;6.260;2024-01-15T03:38:18;22.83;;;7.80;;
19024;SDS011;9645;51.448;6.260;2024-01-15T03:40:45;21.13;;;7.15;;
19024;SDS011;9645;51.448;6.260;2024-01-15T03:43:13;20.98;;;7.15;;
19024;SDS011;9645;51.448;6.260;2024-01-15T03:45:39;17.60;;;6.63;;
19024;SDS011;9645;51.448;6.260;2024-01-15T03:48:07;22.27;;;7.07;;
19024;SDS011;9645;51.448;6.260;2024-01-15T03:50:35;26.55;;;8.23;;
19024;SDS011;9645;51.448;6.260;2024-01-15T03:53:02;20.90;;;7.43;;
19024;SDS011;9645;51.448;6.260;2024-01-15T03:55:29;19.63;;;7.07;;
19024;SDS011;9645;51.448;6.260;2024-01-15T03:57:56;22.77;;;7.75;;
19024;SDS011;9645;51.448;6.260;2024-01-15T04:00:23;17.77;;;6.50;;
19024;SDS011;9645;51.448;6.260;2024-01-15T04:02:50;19.77;;;7.32;;
19024;SDS011;9645;51.448;6.260;2024-01-15T04:05:17;18.75;;;6.80;;
19024;SDS011;9645;51.448;6.260;2024-01-15T04:07:45;18.95;;;6.30;;
19024;SDS011;9645;51.448;6.260;2024-01-15T04:10:12;16.92;;;5.40;;
19024;SDS011;9645;51.448;6.260;2024-01-15T04:12:39;15.38;;;5.70;;
19024;SDS011;9645;51.448;6.260;2024-01-15T04:15:06;17.02;;;5.80;;
19024;SDS011;9645;51.448;6.260;2024-01-15T04:17:34;30.13;;;5.20;;
19024;SDS011;9645;51.448;6.260;2024-01-15T04:20:01;22.42;;;5.75;;
19024;SDS011;9645;51.448;6.260;2024-01-15T04:22:28;20.10;;;7.05;;
19024;SDS011;9645;51.448;6.260;2024-01-15T04:24:57;20.52;;;6.50;;
19024;SDS011;9645;51.448;6.260;2024-01-15T04:27:24;28.02;;;6.80;;
19024;SDS011;9645;51.448;6.260;2024-01-15T04:29:51;15.27;;;5.93;;
19024;SDS011;9645;51.448;6.260;2024-01-15T04:32:18;18.42;;;5.60;;
19024;SDS011;9645;51.448;6.260;2024-01-15T04:34:45;21.08;;;6.55;;
19024;SDS011;9645;51.448;6.260;2024-01-15T04:37:13;15.05;;;5.88;;
19024;SDS011;9645;51.448;6.260;2024-01-15T04:39:40;13.38;;;5.50;;
19024;SDS011;9645;51.448;6.260;2024-01-15T04:42:08;19.67;;;7.07;;
19024;SDS011;9645;51.448;6.260;2024-01-15T04:44:35;17.42;;;6.22;;
19024;SDS011;9645;51.448;6.260;2024-01-15T04:47:02;18.13;;;6.25;;
19024;SDS011;9645;51.448;6.260;2024-01-15T04:49:29;20.90;;;6.80;;
19024;SDS011;9645;51.448;6.260;2024-01-15T04:51:57;17.30;;;6.72;;
19024;SDS011;9645;51.448;6.260;2024-01-15T04:54:23;15.80;;;6.65;;
19024;SDS011;9645;51.448;6.260;2024-01-15T04:56:50;17.02;;;6.35;;
19024;SDS011;9645;51.448;6.260;2024-01-15T04:59:19;17.00;;;5.80;;
19024;SDS011;9645;51.448;6.260;2024-01-15T05:01:46;20.65;;;5.00;;
19024;SDS011;9645;51.448;6.260;2024-01-15T05:04:13;19.25;;;6.10;;
19024;SDS011;9645;51.448;6.260;2024-01-15T05:06:40;18.73;;;5.90;;
19024;SDS011;9645;51.448;6.260;2024-01-15T05:09:07;18.15;;;5.75;;
19024;SDS011;9645;51.448;6.260;2024-01-15T05:11:34;17.58;;;5.20;;
19024;SDS011;9645;51.448;6.260;2024-01-15T05:14:01;28.75;;;4.97;;
19024;SDS011;9645;51.448;6.260;2024-01-15T05:16:29;13.10;;;5.00;;
19024;SDS011;9645;51.448;6.260;2024-01-15T05:18:56;11.50;;;4.82;;
19024;SDS011;9645;51.448;6.260;2024-01-15T05:21:23;16.48;;;4.70;;
19024;SDS011;9645;51.448;6.260;2024-01-15T05:23:50;12.88;;;3.90;;
19024;SDS011;9645;51.448;6.260;2024-01-15T05:26:17;16.50;;;3.80;;
19024;SDS011;9645;51.448;6.260;2024-01-15T05:28:44;7.60;;;3.30;;
19024;SDS011;9645;51.448;6.260;2024-01-15T05:31:13;7.93;;;3.33;;
19024;SDS011;9645;51.448;6.260;2024-01-15T05:33:41;16.33;;;3.83;;
19024;SDS011;9645;51.448;6.260;2024-01-15T05:36:08;15.45;;;4.57;;
19024;SDS011;9645;51.448;6.260;2024-01-15T05:38:35;10.45;;;3.42;;
19024;SDS011;9645;51.448;6.260;2024-01-15T05:41:02;13.57;;;3.78;;
19024;SDS011;9645;51.448;6.260;2024-01-15T05:43:29;8.63;;;3.17;;
19024;SDS011;9645;51.448;6.260;2024-01-15T05:45:56;8.45;;;2.67;;
19024;SDS011;9645;51.448;6.260;2024-01-15T05:48:23;7.43;;;2.75;;
19024;SDS011;9645;51.448;6.260;2024-01-15T05:50:51;12.13;;;2.80;;
19024;SDS011;9645;51.448;6.260;2024-01-15T05:53:18;11.00;;;2.55;;
19024;SDS011;9645;51.448;6.260;2024-01-15T05:55:46;6.15;;;2.60;;
19024;SDS011;9645;51.448;6.260;2024-01-15T05:58:13;6.30;;;2.65;;
19024;SDS011;9645;51.448;6.260;2024-01-15T06:00:40;10.88;;;2.35;;
19024;SDS011;9645;51.448;6.260;2024-01-15T06:03:07;5.93;;;1.88;;
19024;SDS011;9645;51.448;6.260;2024-01-15T06:05:34;5.65;;;1.60;;
19024;SDS011;9645;51.448;6.260;2024-01-15T06:08:02;3.70;;;1.55;;
19024;SDS011;9645;51.448;6.260;2024-01-15T06:10:29;6.45;;;2.38;;
19024;SDS011;9645;51.448;6.260;2024-01-15T06:12:56;5.70;;;1.80;;
19024;SDS011;9645;51.448;6.260;2024-01-15T06:15:23;7.13;;;1.95;;
19024;SDS011;9645;51.448;6.260;2024-01-15T06:17:50;4.18;;;1.92;;
19024;SDS011;9645;51.448;6.260;2024-01-15T06:20:17;4.85;;;1.50;;
19024;SDS011;9645;51.448;6.260;2024-01-15T06:22:44;1.55;;;1.30;;
19024;SDS011;9645;51.448;6.260;2024-01-15T06:25:14;3.28;;;1.48;;
19024;SDS011;9645;51.448;6.260;2024-01-15T06:27:41;1.42;;;1.08;;
19024;SDS011;9645;51.448;6.260;2024-01-15T06:30:08;9.32;;;1.27;;
19024;SDS011;9645;51.448;6.260;2024-01-15T06:32:36;3.10;;;1.60;;
19024;SDS011;9645;51.448;6.260;2024-01-15T06:35:04;12.82;;;4.30;;
19024;SDS011;9645;51.448;6.260;2024-01-15T06:37:31;6.47;;;3.20;;
19024;SDS011;9645;51.448;6.260;2024-01-15T06:39:58;5.10;;;1.83;;
19024;SDS011;9645;51.448;6.260;2024-01-15T06:42:27;2.70;;;1.42;;
19024;SDS011;9645;51.448;6.260;2024-01-15T06:44:54;3.25;;;1.25;;
19024;SDS011;9645;51.448;6.260;2024-01-15T06:47:20;1.98;;;1.40;;
19024;SDS011;9645;51.448;6.260;2024-01-15T06:49:47;4.40;;;2.25;;
19024;SDS011;9645;51.448;6.260;2024-01-15T06:52:15;4.53;;;1.70;;
19024;SDS011;9645;51.448;6.260;2024-01-15T06:54:42;6.00;;;2.25;;
19024;SDS011;9645;51.448;6.260;2024-01-15T06:57:10;7.68;;;2.90;;
19024;SDS011;9645;51.448;6.260;2024-01-15T06:59:39;16.38;;;4.45;;
19024;SDS011;9645;51.448;6.260;2024-01-15T07:02:06;10.20;;;4.50;;
19024;SDS011;9645;51.448;6.260;2024-01-15T07:04:33;17.10;;;6.97;;
19024;SDS011;9645;51.448;6.260;2024-01-15T07:07:00;26.58;;;8.50;;
19024;SDS011;9645;51.448;6.260;2024-01-15T07:09:27;26.90;;;8.30;;
19024;SDS011;9645;51.448;6.260;2024-01-15T07:11:54;26.20;;;8.73;;
19024;SDS011;9645;51.448;6.260;2024-01-15T07:14:23;32.92;;;9.27;;
19024;SDS011;9645;51.448;6.260;2024-01-15T07:16:51;21.75;;;8.23;;
19024;SDS011;9645;51.448;6.260;2024-01-15T07:19:18;30.13;;;9.55;;
19024;SDS011;9645;51.448;6.260;2024-01-15T07:21:45;25.90;;;9.55;;
19024;SDS011;9645;51.448;6.260;2024-01-15T07:24:12;25.00;;;9.05;;
19024;SDS011;9645;51.448;6.260;2024-01-15T07:26:39;27.80;;;9.13;;
19024;SDS011;9645;51.448;6.260;2024-01-15T07:29:06;20.45;;;8.43;;
19024;SDS011;9645;51.448;6.260;2024-01-15T07:31:33;22.92;;;8.50;;
19024;SDS011;9645;51.448;6.260;2024-01-15T07:34:01;24.63;;;8.00;;
19024;SDS011;9645;51.448;6.260;2024-01-15T07:36:29;19.75;;;8.45;;
19024;SDS011;9645;51.448;6.260;2024-01-15T07:38:56;28.17;;;7.70;;
19024;SDS011;9645;51.448;6.260;2024-01-15T07:41:23;20.75;;;8.25;;
19024;SDS011;9645;51.448;6.260;2024-01-15T07:43:50;19.75;;;8.30;;
19024;SDS011;9645;51.448;6.260;2024-01-15T07:46:17;13.98;;;6.85;;
19024;SDS011;9645;51.448;6.260;2024-01-15T07:48:44;21.88;;;8.35;;
19024;SDS011;9645;51.448;6.260;2024-01-15T07:51:12;22.15;;;8.25;;
19024;SDS011;9645;51.448;6.260;2024-01-15T07:53:40;18.38;;;7.88;;
19024;SDS011;9645;51.448;6.260;2024-01-15T07:56:06;18.70;;;7.55;;
19024;SDS011;9645;51.448;6.260;2024-01-15T07:58:33;23.55;;;9.63;;
19024;SDS011;9645;51.448;6.260;2024-01-15T08:01:00;18.58;;;7.55;;
19024;SDS011;9645;51.448;6.260;2024-01-15T08:03:27;14.15;;;6.25;;
19024;SDS011;9645;51.448;6.260;2024-01-15T08:05:54;17.27;;;7.40;;
19024;SDS011;9645;51.448;6.260;2024-01-15T08:08:24;18.98;;;7.47;;
19024;SDS011;9645;51.448;6.260;2024-01-15T08:10:51;18.77;;;7.43;;
19024;SDS011;9645;51.448;6.260;2024-01-15T08:13:18;20.50;;;7.72;;
19024;SDS011;9645;51.448;6.260;2024-01-15T08:15:46;15.05;;;5.50;;
19024;SDS011;9645;51.448;6.260;2024-01-15T08:18:15;10.65;;;4.32;;
19024;SDS011;9645;51.448;6.260;2024-01-15T08:20:42;8.00;;;4.30;;
19024;SDS011;9645;51.448;6.260;2024-01-15T08:23:09;11.73;;;5.18;;
19024;SDS011;9645;51.448;6.260;2024-01-15T08:25:37;9.35;;;4.47;;
19024;SDS011;9645;51.448;6.260;2024-01-15T08:28:04;9.43;;;4.03;;
19024;SDS011;9645;51.448;6.260;2024-01-15T08:30:31;8.32;;;4.03;;
19024;SDS011;9645;51.448;6.260;2024-01-15T08:32:58;9.80;;;4.20;;
19024;SDS011;9645;51.448;6.260;2024-01-15T08:35:26;9.10;;;4.13;;
19024;SDS011;9645;51.448;6.260;2024-01-15T08:37:53;10.32;;;3.80;;
19024;SDS011;9645;51.448;6.260;2024-01-15T08:40:20;7.97;;;3.72;;
19024;SDS011;9645;51.448;6.260;2024-01-15T08:42:48;8.75;;;3.70;;
19024;SDS011;9645;51.448;6.260;2024-01-15T08:45:15;7.65;;;4.00;;
19024;SDS011;9645;51.448;6.260;2024-01-15T08:47:42;7.63;;;3.25;;
19024;SDS011;9645;51.448;6.260;2024-01-15T08:50:09;6.25;;;3.45;;
19024;SDS011;9645;51.448;6.260;2024-01-15T08:52:36;8.85;;;3.97;;
19024;SDS011;9645;51.448;6.260;2024-01-15T08:55:04;9.15;;;4.05;;
19024;SDS011;9645;51.448;6.260;2024-01-15T08:57:32;12.00;;;3.80;;
19024;SDS011;9645;51.448;6.260;2024-01-15T09:00:01;7.10;;;3.65;;
19024;SDS011;9645;51.448;6.260;2024-01-15T09:02:28;7.53;;;3.53;;
19024;SDS011;9645;51.448;6.260;2024-01-15T09:04:56;6.70;;;3.75;;
19024;SDS011;9645;51.448;6.260;2024-01-15T09:07:23;10.80;;;3.78;;
19024;SDS011;9645;51.448;6.260;2024-01-15T09:09:51;7.70;;;3.83;;
19024;SDS011;9645;51.448;6.260;2024-01-15T09:12:18;7.40;;;3.67;;
19024;SDS011;9645;51.448;6.260;2024-01-15T09:14:47;10.32;;;4.10;;
19024;SDS011;9645;51.448;6.260;2024-01-15T09:17:17;7.60;;;4.05;;
19024;SDS011;9645;51.448;6.260;2024-01-15T09:19:44;7.93;;;3.90;;
19024;SDS011;9645;51.448;6.260;2024-01-15T09:22:12;7.20;;;3.30;;
19024;SDS011;9645;51.448;6.260;2024-01-15T09:24:40;8.43;;;4.10;;
19024;SDS011;9645;51.448;6.260;2024-01-15T09:27:07;9.88;;;4.63;;
19024;SDS011;9645;51.448;6.260;2024-01-15T09:29:33;7.65;;;3.40;;
19024;SDS011;9645;51.448;6.260;2024-01-15T09:32:02;8.95;;;3.50;;
19024;SDS011;9645;51.448;6.260;2024-01-15T09:34:30;8.57;;;3.92;;
19024;SDS011;9645;51.448;6.260;2024-01-15T09:36:57;9.32;;;4.13;;
19024;SDS011;9645;51.448;6.260;2024-01-15T09:39:25;9.18;;;3.88;;
19024;SDS011;9645;51.448;6.260;2024-01-15T09:41:52;7.65;;;4.15;;
19024;SDS011;9645;51.448;6.260;2024-01-15T09:44:19;8.95;;;4.60;;
19024;SDS011;9645;51.448;6.260;2024-01-15T09:46:47;8.43;;;4.05;;
19024;SDS011;9645;51.448;6.260;2024-01-15T09:49:15;10.35;;;4.28;;
19024;SDS011;9645;51.448;6.260;2024-01-15T09:51:44;11.50;;;4.80;;
19024;SDS011;9645;51.448;6.260;2024-01-15T09:54:11;9.00;;;4.93;;
19024;SDS011;9645;51.448;6.260;2024-01-15T09:56:38;7.53;;;4.10;;
19024;SDS011;9645;51.448;6.260;2024-01-15T09:59:05;10.00;;;4.60;;
19024;SDS011;9645;51.448;6.260;2024-01-15T10:01:33;10.88;;;4.88;;
19024;SDS011;9645;51.448;6.260;2024-01-15T10:04:02;12.07;;;4.80;;
19024;SDS011;9645;51.448;6.260;2024-01-15T10:06:29;8.63;;;4.22;;
19024;SDS011;9645;51.448;6.260;2024-01-15T10:08:58;9.43;;;4.50;;
19024;SDS011;9645;51.448;6.260;2024-01-15T10:11:26;11.45;;;4.93;;
19024;SDS011;9645;51.448;6.260;2024-01-15T10:13:53;11.95;;;5.50;;
19024;SDS011;9645;51.448;6.260;2024-01-15T10:16:22;10.63;;;4.70;;
19024;SDS011;9645;51.448;6.260;2024-01-15T10:18:49;11.75;;;5.60;;
19024;SDS011;9645;51.448;6.260;2024-01-15T10:21:16;11.10;;;5.07;;
19024;SDS011;9645;51.448;6.260;2024-01-15T10:23:44;9.27;;;4.47;;
19024;SDS011;9645;51.448;6.260;2024-01-15T10:26:12;11.68;;;5.28;;
19024;SDS011;9645;51.448;6.260;2024-01-15T10:28:40;7.45;;;3.75;;
19024;SDS011;9645;51.448;6.260;2024-01-15T10:31:08;10.27;;;4.28;;
19024;SDS011;9645;51.448;6.260;2024-01-15T10:33:35;10.80;;;4.65;;
19024;SDS011;9645;51.448;6.260;2024-01-15T10:36:02;11.05;;;4.05;;
19024;SDS011;9645;51.448;6.260;2024-01-15T10:38:29;8.38;;;4.40;;
19024;SDS011;9645;51.448;6.260;2024-01-15T10:40:56;10.30;;;4.72;;
19024;SDS011;9645;51.448;6.260;2024-01-15T10:43:24;6.53;;;3.55;;
19024;SDS011;9645;51.448;6.260;2024-01-15T10:45:51;9.18;;;3.58;;
19024;SDS011;9645;51.448;6.260;2024-01-15T10:48:18;9.93;;;4.65;;
19024;SDS011;9645;51.448;6.260;2024-01-15T10:50:46;8.48;;;3.33;;
19024;SDS011;9645;51.448;6.260;2024-01-15T10:53:14;12.88;;;3.60;;
19024;SDS011;9645;51.448;6.260;2024-01-15T10:55:42;8.70;;;3.10;;
19024;SDS011;9645;51.448;6.260;2024-01-15T10:58:10;8.18;;;3.10;;
19024;SDS011;9645;51.448;6.260;2024-01-15T11:00:38;5.63;;;2.47;;
19024;SDS011;9645;51.448;6.260;2024-01-15T11:03:05;8.07;;;1.90;;
19024;SDS011;9645;51.448;6.260;2024-01-15T11:05:33;7.78;;;1.85;;
19024;SDS011;9645;51.448;6.260;2024-01-15T11:08:04;3.28;;;1.50;;
19024;SDS011;9645;51.448;6.260;2024-01-15T11:10:38;4.18;;;1.95;;
19024;SDS011;9645;51.448;6.260;2024-01-15T11:13:10;4.38;;;1.60;;
19024;SDS011;9645;51.448;6.260;2024-01-15T11:16:00;2.88;;;1.27;;
19024;SDS011;9645;51.448;6.260;2024-01-15T11:18:29;4.43;;;1.17;;
19024;SDS011;9645;51.448;6.260;2024-01-15T11:23:50;3.50;;;1.30;;
19024;SDS011;9645;51.448;6.260;2024-01-15T11:26:28;6.95;;;1.40;;
19024;SDS011;9645;51.448;6.260;2024-01-15T11:29:10;4.93;;;1.40;;
19024;SDS011;9645;51.448;6.260;2024-01-15T11:31:59;3.38;;;1.83;;
19024;SDS011;9645;51.448;6.260;2024-01-15T11:37:24;4.30;;;1.67;;
19024;SDS011;9645;51.448;6.260;2024-01-15T11:39:53;6.90;;;2.10;;
19024;SDS011;9645;51.448;6.260;2024-01-15T11:42:21;4.45;;;2.05;;
19024;SDS011;9645;51.448;6.260;2024-01-15T11:44:49;5.45;;;2.20;;
19024;SDS011;9645;51.448;6.260;2024-01-15T11:47:21;11.98;;;2.20;;
19024;SDS011;9645;51.448;6.260;2024-01-15T11:50:14;5.15;;;2.10;;
19024;SDS011;9645;51.448;6.260;2024-01-15T11:52:41;4.20;;;2.40;;
19024;SDS011;9645;51.448;6.260;2024-01-15T11:55:22;4.95;;;2.30;;
19024;SDS011;9645;51.448;6.260;2024-01-15T11:57:53;8.40;;;2.60;;
19024;SDS011;9645;51.448;6.260;2024-01-15T12:00:21;9.05;;;2.60;;
19024;SDS011;9645;51.448;6.260;2024-01-15T12:02:50;8.88;;;2.80;;
19024;SDS011;9645;51.448;6.260;2024-01-15T12:05:18;6.75;;;2.40;;
19024;SDS011;9645;51.448;6.260;2024-01-15T12:07:46;6.97;;;2.53;;
19024;SDS011;9645;51.448;6.260;2024-01-15T12:10:14;5.72;;;2.92;;
19024;SDS011;9645;51.448;6.260;2024-01-15T12:12:55;4.32;;;2.83;;
19024;SDS011;9645;51.448;6.260;2024-01-15T12:15:24;6.70;;;3.00;;
19024;SDS011;9645;51.448;6.260;2024-01-15T12:17:55;7.13;;;2.65;;
19024;SDS011;9645;51.448;6.260;2024-01-15T12:20:23;6.45;;;2.95;;
19024;SDS011;9645;51.448;6.260;2024-01-15T12:22:51;5.53;;;2.95;;
19024;SDS011;9645;51.448;6.260;2024-01-15T12:25:18;8.18;;;4.05;;
19024;SDS011;9645;51.448;6.260;2024-01-15T12:27:45;8.35;;;4.00;;
19024;SDS011;9645;51.448;6.260;2024-01-15T12:30:12;11.15;;;3.63;;
19024;SDS011;9645;51.448;6.260;2024-01-15T12:32:40;9.50;;;4.45;;
19024;SDS011;9645;51.448;6.260;2024-01-15T12:35:09;9.00;;;4.13;;
19024;SDS011;9645;51.448;6.260;2024-01-15T12:37:36;8.82;;;4.57;;
19024;SDS011;9645;51.448;6.260;2024-01-15T12:40:05;6.43;;;3.45;;
19024;SDS011;9645;51.448;6.260;2024-01-15T12:42:34;7.90;;;3.75;;
19024;SDS011;9645;51.448;6.260;2024-01-15T12:45:01;6.65;;;3.67;;
19024;SDS011;9645;51.448;6.260;2024-01-15T12:47:29;7.78;;;3.30;;
19024;SDS011;9645;51.448;6.260;2024-01-15T12:49:57;9.20;;;3.38;;
19024;SDS011;9645;51.448;6.260;2024-01-15T12:52:27;4.93;;;2.75;;
19024;SDS011;9645;51.448;6.260;2024-01-15T12:54:54;6.57;;;2.50;;
19024;SDS011;9645;51.448;6.260;2024-01-15T12:57:21;8.80;;;3.00;;
19024;SDS011;9645;51.448;6.260;2024-01-15T12:59:48;6.93;;;2.13;;
19024;SDS011;9645;51.448;6.260;2024-01-15T13:02:16;3.80;;;2.10;;
19024;SDS011;9645;51.448;6.260;2024-01-15T13:04:43;3.58;;;2.10;;
19024;SDS011;9645;51.448;6.260;2024-01-15T13:07:10;7.03;;;2.97;;
19024;SDS011;9645;51.448;6.260;2024-01-15T13:09:38;8.82;;;2.03;;
19024;SDS011;9645;51.448;6.260;2024-01-15T13:12:05;3.20;;;1.83;;
19024;SDS011;9645;51.448;6.260;2024-01-15T13:14:32;2.55;;;1.88;;
19024;SDS011;9645;51.448;6.260;2024-01-15T13:16:59;2.13;;;1.60;;
19024;SDS011;9645;51.448;6.260;2024-01-15T13:19:26;4.05;;;1.60;;
19024;SDS011;9645;51.448;6.260;2024-01-15T13:21:53;2.63;;;2.00;;
19024;SDS011;9645;51.448;6.260;2024-01-15T13:24:21;7.95;;;1.77;;
19024;SDS011;9645;51.448;6.260;2024-01-15T13:26:50;3.67;;;1.60;;
19024;SDS011;9645;51.448;6.260;2024-01-15T13:29:17;2.70;;;1.88;;
19024;SDS011;9645;51.448;6.260;2024-01-15T13:31:44;4.15;;;1.77;;
19024;SDS011;9645;51.448;6.260;2024-01-15T13:34:12;1.75;;;1.52;;
19024;SDS011;9645;51.448;6.260;2024-01-15T13:36:41;3.80;;;1.90;;
19024;SDS011;9645;51.448;6.260;2024-01-15T13:39:08;2.33;;;1.40;;
19024;SDS011;9645;51.448;6.260;2024-01-15T13:41:35;4.03;;;1.88;;
19024;SDS011;9645;51.448;6.260;2024-01-15T13:44:04;8.02;;;2.08;;
19024;SDS011;9645;51.448;6.260;2024-01-15T13:46:31;3.00;;;2.03;;
19024;SDS011;9645;51.448;6.260;2024-01-15T13:48:59;3.00;;;1.80;;
19024;SDS011;9645;51.448;6.260;2024-01-15T13:51:27;4.25;;;2.33;;
19024;SDS011;9645;51.448;6.260;2024-01-15T13:53:55;4.10;;;2.03;;
19024;SDS011;9645;51.448;6.260;2024-01-15T13:56:21;3.47;;;2.30;;
19024;SDS011;9645;51.448;6.260;2024-01-15T13:58:48;3.20;;;2.13;;
19024;SDS011;9645;51.448;6.260;2024-01-15T14:01:18;3.35;;;2.05;;
19024;SDS011;9645;51.448;6.260;2024-01-15T14:03:46;6.43;;;2.50;;
19024;SDS011;9645;51.448;6.260;2024-01-15T14:06:13;4.57;;;2.42;;
19024;SDS011;9645;51.448;6.260;2024-01-15T14:08:40;8.55;;;3.17;;
19024;SDS011;9645;51.448;6.260;2024-01-15T14:11:07;5.00;;;3.08;;
19024;SDS011;9645;51.448;6.260;2024-01-15T14:13:35;3.78;;;2.55;;
19024;SDS011;9645;51.448;6.260;2024-01-15T14:16:02;4.50;;;2.30;;
19024;SDS011;9645;51.448;6.260;2024-01-15T14:18:31;9.65;;;2.40;;
19024;SDS011;9645;51.448;6.260;2024-01-15T14:20:58;3.78;;;2.42;;
19024;SDS011;9645;51.448;6.260;2024-01-15T14:23:25;14.65;;;7.45;;
19024;SDS011;9645;51.448;6.260;2024-01-15T14:25:52;6.80;;;3.42;;
19024;SDS011;9645;51.448;6.260;2024-01-15T14:28:19;6.93;;;3.85;;
19024;SDS011;9645;51.448;6.260;2024-01-15T14:30:46;6.43;;;3.47;;
19024;SDS011;9645;51.448;6.260;2024-01-15T14:33:13;6.82;;;3.17;;
19024;SDS011;9645;51.448;6.260;2024-01-15T14:35:41;4.80;;;3.08;;
19024;SDS011;9645;51.448;6.260;2024-01-15T14:38:08;4.35;;;2.63;;
19024;SDS011;9645;51.448;6.260;2024-01-15T14:40:35;6.30;;;3.28;;
19024;SDS011;9645;51.448;6.260;2024-01-15T14:43:03;6.43;;;3.45;;
19024;SDS011;9645;51.448;6.260;2024-01-15T14:45:30;6.80;;;3.20;;
19024;SDS011;9645;51.448;6.260;2024-01-15T14:47:57;4.47;;;2.60;;
19024;SDS011;9645;51.448;6.260;2024-01-15T14:50:24;3.85;;;1.83;;
19024;SDS011;9645;51.448;6.260;2024-01-15T14:52:52;6.90;;;2.55;;
19024;SDS011;9645;51.448;6.260;2024-01-15T14:55:19;6.72;;;3.10;;
19024;SDS011;9645;51.448;6.260;2024-01-15T14:57:48;4.72;;;2.65;;
19024;SDS011;9645;51.448;6.260;2024-01-15T15:00:15;5.40;;;2.35;;
19024;SDS011;9645;51.448;6.260;2024-01-15T15:02:43;3.42;;;2.05;;
19024;SDS011;9645;51.448;6.260;2024-01-15T15:05:10;4.85;;;2.60;;